createdAt,value
2023-01-28T00:02:21.948Z,2.55
2023-01-28T00:04:51.835Z,2.60
2023-01-28T00:07:20.314Z,2.71
2023-01-28T00:09:47.897Z,2.76
2023-01-28T00:12:15.497Z,2.78
2023-01-28T00:14:43.101Z,2.68
2023-01-28T00:17:10.697Z,2.73
2023-01-28T00:19:38.275Z,2.81
2023-01-28T00:22:07.263Z,2.69
2023-01-28T00:24:34.824Z,2.61
2023-01-28T00:27:02.473Z,2.53
2023-01-28T00:29:30.010Z,2.61
2023-01-28T00:31:57.588Z,2.50
2023-01-28T00:34:25.144Z,2.74
2023-01-28T00:36:57.592Z,2.47
2023-01-28T00:39:27.733Z,2.53
2023-01-28T00:41:55.355Z,2.47
2023-01-28T00:44:22.938Z,2.60
2023-01-28T00:46:50.607Z,2.45
2023-01-28T00:49:18.503Z,2.62
2023-01-28T00:51:46.119Z,2.56
2023-01-28T00:54:14.099Z,2.54
2023-01-28T00:56:43.019Z,2.45
2023-01-28T00:59:10.672Z,2.62
2023-01-28T01:01:38.306Z,2.38
2023-01-28T01:04:06.111Z,2.68
2023-01-28T01:06:36.209Z,2.74
2023-01-28T01:09:08.320Z,2.86
2023-01-28T01:11:36.149Z,2.71
2023-01-28T01:14:07.107Z,2.85
2023-01-28T01:16:36.113Z,2.47
2023-01-28T01:19:04.451Z,2.38
2023-01-28T01:21:32.592Z,2.84
2023-01-28T01:24:00.270Z,2.58
2023-01-28T01:26:27.881Z,2.67
2023-01-28T01:28:56.203Z,2.52
2023-01-28T01:31:25.214Z,2.64
2023-01-28T01:33:53.722Z,2.69
2023-01-28T01:36:22.085Z,2.46
2023-01-28T01:38:54.007Z,2.37
2023-01-28T01:41:26.737Z,2.53
2023-01-28T01:43:56.391Z,2.56
2023-01-28T01:46:31.772Z,2.30
2023-01-28T01:49:04.994Z,2.37
2023-01-28T01:51:35.541Z,2.41
2023-01-28T01:54:04.044Z,2.48
2023-01-28T01:56:36.652Z,2.24
2023-01-28T01:59:05.582Z,2.54
2023-01-28T02:01:34.536Z,2.65
2023-01-28T02:04:08.175Z,2.59
2023-01-28T02:06:37.736Z,2.52
2023-01-28T02:09:09.100Z,2.34
2023-01-28T02:11:37.634Z,2.38
2023-01-28T02:14:07.691Z,2.50
2023-01-28T02:16:36.727Z,2.43
2023-01-28T02:19:04.463Z,2.32
2023-01-28T02:21:58.007Z,2.24
2023-01-28T02:24:54.948Z,2.23
2023-01-28T02:27:31.094Z,2.21
2023-01-28T02:30:07.760Z,2.15
2023-01-28T02:32:41.691Z,2.01
2023-01-28T02:35:15.845Z,2.12
2023-01-28T02:37:48.844Z,2.00
2023-01-28T02:40:23.384Z,2.13
2023-01-28T02:42:50.998Z,2.02
2023-01-28T02:45:46.068Z,2.00
2023-01-28T02:48:12.974Z,1.91
2023-01-28T02:50:51.128Z,2.06
2023-01-28T02:53:44.797Z,2.07
2023-01-28T02:56:21.509Z,2.06
2023-01-28T02:58:57.228Z,2.00
2023-01-28T03:01:33.618Z,2.06
2023-01-28T03:04:06.782Z,2.18
2023-01-28T03:06:39.196Z,1.89
2023-01-28T03:09:24.493Z,1.86
2023-01-28T03:12:13.855Z,2.20
2023-01-28T03:15:00.391Z,2.14
2023-01-28T03:17:53.110Z,2.24
2023-01-28T03:20:40.958Z,2.15
2023-01-28T03:23:29.970Z,1.99
2023-01-28T03:26:19.664Z,2.17
2023-01-28T03:29:07.183Z,2.05
2023-01-28T03:31:54.643Z,2.24
2023-01-28T03:34:42.165Z,2.02
2023-01-28T03:37:10.053Z,2.07
2023-01-28T03:39:38.856Z,1.98
2023-01-28T03:42:09.559Z,2.00
2023-01-28T03:44:52.944Z,2.00
2023-01-28T03:47:22.006Z,1.95
2023-01-28T03:49:52.628Z,2.02
2023-01-28T03:52:22.559Z,1.96
2023-01-28T03:54:51.944Z,1.97
2023-01-28T03:57:21.400Z,2.08
2023-01-28T03:59:49.731Z,1.90
2023-01-28T04:02:18.139Z,1.83
2023-01-28T04:04:45.705Z,1.85
2023-01-28T04:07:15.462Z,1.88
2023-01-28T04:09:43.844Z,1.67
2023-01-28T04:12:11.824Z,1.97
2023-01-28T04:14:40.378Z,1.80
2023-01-28T04:17:10.389Z,1.98
2023-01-28T04:19:38.416Z,1.81
2023-01-28T04:22:08.878Z,1.93
2023-01-28T04:24:37.765Z,1.65
2023-01-28T04:27:05.539Z,1.94
2023-01-28T04:29:33.105Z,1.93
2023-01-28T04:32:00.653Z,1.96
2023-01-28T04:34:28.221Z,1.90
2023-01-28T04:36:55.792Z,2.06
2023-01-28T04:39:23.537Z,1.88
2023-01-28T04:41:52.454Z,1.93
2023-01-28T04:44:20.037Z,1.88
2023-01-28T04:46:47.695Z,1.89
2023-01-28T04:49:15.271Z,1.88
2023-01-28T04:51:42.891Z,1.99
2023-01-28T04:54:10.687Z,1.87
2023-01-28T04:56:38.221Z,1.93
2023-01-28T04:59:08.180Z,1.71
2023-01-28T05:01:35.854Z,1.99
2023-01-28T05:04:05.697Z,1.91
2023-01-28T05:06:33.457Z,2.01
2023-01-28T05:09:01.618Z,2.12
2023-01-28T05:11:29.191Z,1.81
2023-01-28T05:13:56.731Z,1.86
2023-01-28T05:16:25.710Z,1.80
2023-01-28T05:18:53.325Z,1.81
2023-01-28T05:21:21.125Z,1.73
2023-01-28T05:23:48.732Z,1.82
2023-01-28T05:26:16.268Z,2.08
2023-01-28T05:28:43.893Z,1.97
2023-01-28T05:31:11.993Z,1.86
2023-01-28T05:33:40.948Z,1.99
2023-01-28T05:36:08.880Z,1.88
2023-01-28T05:38:36.462Z,1.89
2023-01-28T05:41:04.039Z,1.98
2023-01-28T05:43:31.595Z,2.08
2023-01-28T05:45:59.218Z,1.79
2023-01-28T05:48:27.008Z,1.93
2023-01-28T05:50:56.002Z,1.91
2023-01-28T05:53:23.574Z,2.11
2023-01-28T05:55:52.109Z,2.01
2023-01-28T05:58:20.070Z,2.21
2023-01-28T06:00:47.811Z,1.99
2023-01-28T06:03:15.515Z,1.68
2023-01-28T06:05:43.259Z,2.07
2023-01-28T06:08:12.167Z,2.11
2023-01-28T06:10:39.882Z,1.88
2023-01-28T06:13:07.626Z,1.80
2023-01-28T06:15:35.253Z,1.66
2023-01-28T06:18:02.906Z,1.65
2023-01-28T06:20:30.598Z,2.01
2023-01-28T06:22:58.156Z,1.96
2023-01-28T06:25:27.067Z,1.75
2023-01-28T06:27:54.728Z,1.89
2023-01-28T06:30:22.450Z,1.75
2023-01-28T06:32:55.624Z,1.73
2023-01-28T06:35:23.385Z,1.82
2023-01-28T06:37:52.356Z,1.64
2023-01-28T06:40:19.945Z,1.44
2023-01-28T06:42:48.856Z,1.73
2023-01-28T06:45:16.428Z,1.98
2023-01-28T06:47:43.990Z,1.82
2023-01-28T06:50:12.592Z,1.83
2023-01-28T06:52:41.514Z,1.83
2023-01-28T06:55:09.845Z,1.74
2023-01-28T06:57:39.253Z,1.74
2023-01-28T07:00:11.163Z,2.06
2023-01-28T07:02:38.865Z,2.11
2023-01-28T07:05:07.555Z,1.83
2023-01-28T07:07:35.313Z,1.56
2023-01-28T07:10:02.902Z,1.91
2023-01-28T07:12:30.514Z,1.78
2023-01-28T07:14:58.052Z,1.91
2023-01-28T07:17:27.013Z,1.92
2023-01-28T07:19:54.594Z,1.80
2023-01-28T07:22:22.372Z,1.75
2023-01-28T07:24:49.932Z,1.90
2023-01-28T07:27:17.489Z,1.66
2023-01-28T07:29:45.035Z,1.89
2023-01-28T07:32:12.607Z,1.93
2023-01-28T07:34:43.072Z,1.95
2023-01-28T07:37:10.994Z,1.85
2023-01-28T07:39:38.591Z,1.89
2023-01-28T07:42:06.462Z,1.86
2023-01-28T07:44:35.816Z,1.89
2023-01-28T07:47:03.590Z,1.70
2023-01-28T07:49:31.173Z,1.71
2023-01-28T07:52:00.650Z,1.74
2023-01-28T07:54:28.240Z,2.18
2023-01-28T07:56:55.777Z,1.90
2023-01-28T07:59:23.788Z,2.00
2023-01-28T08:01:53.086Z,2.03
2023-01-28T08:04:21.785Z,1.70
2023-01-28T08:06:49.502Z,2.00
2023-01-28T08:09:18.457Z,1.96
2023-01-28T08:11:46.059Z,2.10
2023-01-28T08:14:13.881Z,2.31
2023-01-28T08:16:41.455Z,2.08
2023-01-28T08:19:09.216Z,1.94
2023-01-28T08:21:36.746Z,2.27
2023-01-28T08:24:04.335Z,1.86
2023-01-28T08:26:33.265Z,1.86
2023-01-28T08:29:00.808Z,1.98
2023-01-28T08:31:29.092Z,2.04
2023-01-28T08:33:56.776Z,1.74
2023-01-28T08:36:24.425Z,1.99
2023-01-28T08:38:54.048Z,2.01
2023-01-28T08:41:22.176Z,2.22
2023-01-28T08:43:51.258Z,1.93
2023-01-28T08:46:18.912Z,2.35
2023-01-28T08:48:46.559Z,2.02
2023-01-28T08:51:14.173Z,2.17
2023-01-28T08:53:41.771Z,2.02
2023-01-28T08:56:09.348Z,2.24
2023-01-28T08:58:37.140Z,2.30
2023-01-28T09:01:07.269Z,2.28
2023-01-28T09:03:36.135Z,2.51
2023-01-28T09:06:04.842Z,2.18
2023-01-28T09:08:33.019Z,2.40
2023-01-28T09:11:01.718Z,2.39
2023-01-28T09:13:30.066Z,2.36
2023-01-28T09:15:58.082Z,2.27
2023-01-28T09:18:26.974Z,2.17
2023-01-28T09:20:54.511Z,2.35
2023-01-28T09:23:22.048Z,2.32
2023-01-28T09:25:49.661Z,2.36
2023-01-28T09:28:17.409Z,2.29
2023-01-28T09:30:44.966Z,2.58
2023-01-28T09:33:12.518Z,2.31
2023-01-28T09:35:41.453Z,2.28
2023-01-28T09:38:09.174Z,2.11
2023-01-28T09:40:38.830Z,2.25
2023-01-28T09:43:25.667Z,2.29
2023-01-28T09:45:56.666Z,2.15
2023-01-28T09:48:32.710Z,2.23
2023-01-28T09:51:02.487Z,2.37
2023-01-28T09:53:32.924Z,2.52
2023-01-28T09:56:03.661Z,2.58
2023-01-28T09:58:31.621Z,2.81
2023-01-28T10:01:05.009Z,2.62
2023-01-28T10:03:47.913Z,2.82
2023-01-28T10:06:28.450Z,2.61
2023-01-28T10:09:13.857Z,2.55
2023-01-28T10:11:54.569Z,2.61
2023-01-28T10:14:34.318Z,2.82
2023-01-28T10:17:08.872Z,2.94
2023-01-28T10:19:42.089Z,2.72
2023-01-28T10:22:17.239Z,2.86
2023-01-28T10:24:50.304Z,2.73
2023-01-28T10:27:20.842Z,2.69
2023-01-28T10:29:49.980Z,2.84
2023-01-28T10:32:26.741Z,3.04
2023-01-28T10:34:54.496Z,2.94
2023-01-28T10:37:23.554Z,2.86
2023-01-28T10:40:02.808Z,2.47
2023-01-28T10:42:32.238Z,2.63
2023-01-28T10:45:02.724Z,2.64
2023-01-28T10:47:39.031Z,2.65
2023-01-28T10:50:16.348Z,2.74
2023-01-28T10:52:55.653Z,2.82
2023-01-28T10:55:25.356Z,2.57
2023-01-28T10:57:53.926Z,2.73
2023-01-28T11:00:26.877Z,2.86
2023-01-28T11:02:55.925Z,2.79
2023-01-28T11:05:27.163Z,2.76
2023-01-28T11:08:07.006Z,2.65
2023-01-28T11:10:36.913Z,2.70
2023-01-28T11:13:06.255Z,2.90
2023-01-28T11:15:34.537Z,2.63
2023-01-28T11:18:04.033Z,2.72
2023-01-28T11:20:38.424Z,2.43
2023-01-28T11:23:07.839Z,2.54
2023-01-28T11:25:37.777Z,2.73
2023-01-28T11:28:09.103Z,2.64
2023-01-28T11:30:40.305Z,2.57
2023-01-28T11:33:16.770Z,2.85
2023-01-28T11:35:53.834Z,2.82
2023-01-28T11:38:25.195Z,2.96
2023-01-28T11:40:53.769Z,2.49
2023-01-28T11:43:24.353Z,3.11
2023-01-28T11:46:04.792Z,3.02
2023-01-28T11:48:42.800Z,2.84
2023-01-28T11:51:24.962Z,3.03
2023-01-28T11:54:03.126Z,3.04
2023-01-28T11:56:45.437Z,2.60
2023-01-28T11:59:43.199Z,2.89
2023-01-28T12:02:25.066Z,2.60
2023-01-28T12:05:17.804Z,2.60
2023-01-28T12:07:51.942Z,2.98
2023-01-28T12:10:30.510Z,2.92
2023-01-28T12:13:15.194Z,2.91
2023-01-28T12:16:01.378Z,2.71
2023-01-28T12:18:52.397Z,3.06
2023-01-28T12:21:29.224Z,3.01
2023-01-28T12:24:11.267Z,2.72
2023-01-28T12:26:49.154Z,2.66
2023-01-28T12:29:25.067Z,3.27
2023-01-28T12:32:06.186Z,3.24
2023-01-28T12:35:02.649Z,3.04
2023-01-28T12:37:42.045Z,2.91
2023-01-28T12:40:40.307Z,2.79
2023-01-28T12:43:15.813Z,3.10
2023-01-28T12:45:48.111Z,2.98
2023-01-28T12:48:20.319Z,2.93
2023-01-28T12:50:52.188Z,2.87
2023-01-28T12:53:27.543Z,2.69
2023-01-28T12:56:00.570Z,2.97
2023-01-28T12:58:38.306Z,2.62
2023-01-28T13:01:10.465Z,2.76
2023-01-28T13:03:42.824Z,2.60
2023-01-28T13:06:16.457Z,2.97
2023-01-28T13:08:44.047Z,3.11
2023-01-28T13:11:16.905Z,2.90
2023-01-28T13:13:47.338Z,3.21
2023-01-28T13:16:15.066Z,3.31
2023-01-28T13:18:47.501Z,2.89
2023-01-28T13:21:18.551Z,2.79
2023-01-28T13:23:47.951Z,2.83
2023-01-28T13:26:39.334Z,2.45
2023-01-28T13:29:29.033Z,2.66
2023-01-28T13:31:57.965Z,2.55
2023-01-28T13:34:33.569Z,3.10
2023-01-28T13:37:06.132Z,3.16
2023-01-28T13:39:36.556Z,3.29
2023-01-28T13:42:22.888Z,3.31
2023-01-28T13:44:52.225Z,3.32
2023-01-28T13:47:26.410Z,3.18
2023-01-28T13:49:58.480Z,3.09
2023-01-28T13:52:31.797Z,2.83
2023-01-28T13:55:04.619Z,2.85
2023-01-28T13:57:48.974Z,2.60
2023-01-28T14:00:27.085Z,2.57
2023-01-28T14:03:21.639Z,2.21
2023-01-28T14:06:17.318Z,2.36
2023-01-28T14:09:04.336Z,2.53
2023-01-28T14:12:23.028Z,2.38
2023-01-28T14:15:09.285Z,2.41
2023-01-28T14:17:45.355Z,2.18
2023-01-28T14:20:20.836Z,2.32
2023-01-28T14:22:49.295Z,2.24
2023-01-28T14:25:21.904Z,2.42
2023-01-28T14:27:54.770Z,2.19
2023-01-28T14:30:30.347Z,2.07
2023-01-28T14:32:59.903Z,1.98
2023-01-28T14:35:31.724Z,2.25
2023-01-28T14:38:01.829Z,2.59
2023-01-28T14:40:31.291Z,2.38
2023-01-28T14:42:59.455Z,2.62
2023-01-28T14:45:43.305Z,2.34
2023-01-28T14:48:25.202Z,2.37
2023-01-28T14:51:20.465Z,2.40
2023-01-28T14:54:16.935Z,2.38
2023-01-28T14:56:58.564Z,2.25
2023-01-28T14:59:29.223Z,1.96
2023-01-28T15:01:59.345Z,2.00
2023-01-28T15:04:30.950Z,2.16
2023-01-28T15:07:03.123Z,2.23
2023-01-28T15:09:30.860Z,2.21
2023-01-28T15:11:59.846Z,2.18
2023-01-28T15:14:30.301Z,1.65
2023-01-28T15:16:58.417Z,1.91
2023-01-28T15:19:31.095Z,2.00
2023-01-28T15:22:01.272Z,1.80
2023-01-28T15:24:29.117Z,1.83
2023-01-28T15:26:57.201Z,1.90
2023-01-28T15:29:26.984Z,1.80
2023-01-28T15:31:54.670Z,1.89
2023-01-28T15:34:23.535Z,1.74
2023-01-28T15:36:52.502Z,1.67
2023-01-28T15:39:22.428Z,1.95
2023-01-28T15:41:53.019Z,1.76
2023-01-28T15:44:29.327Z,1.88
2023-01-28T15:46:57.853Z,1.91
2023-01-28T15:49:29.648Z,1.85
2023-01-28T15:51:58.699Z,1.98
2023-01-28T15:54:26.897Z,1.90
2023-01-28T15:56:54.507Z,1.65
2023-01-28T15:59:27.969Z,1.82
2023-01-28T16:02:19.699Z,1.62
2023-01-28T16:04:57.933Z,1.53
2023-01-28T16:07:28.191Z,1.58
2023-01-28T16:09:57.834Z,1.36
2023-01-28T16:12:26.818Z,1.41
2023-01-28T16:14:57.049Z,1.49
2023-01-28T16:17:27.977Z,1.80
2023-01-28T16:19:59.792Z,1.68
2023-01-28T16:22:35.471Z,1.46
2023-01-28T16:25:03.574Z,1.62
2023-01-28T16:27:32.146Z,1.23
2023-01-28T16:29:59.869Z,1.60
2023-01-28T16:32:30.206Z,1.47
2023-01-28T16:34:57.887Z,1.26
2023-01-28T16:40:01.562Z,1.51
2023-01-28T16:42:30.369Z,1.59
2023-01-28T16:44:57.982Z,1.74
2023-01-28T16:47:25.538Z,1.75
2023-01-28T16:49:53.130Z,1.89
2023-01-28T16:52:20.717Z,1.33
2023-01-28T16:54:48.508Z,1.27
2023-01-28T16:57:19.842Z,1.33
2023-01-28T16:59:47.483Z,1.40
2023-01-28T17:02:16.465Z,1.54
2023-01-28T17:04:44.036Z,1.35
2023-01-28T17:07:11.675Z,1.42
2023-01-28T17:09:39.365Z,1.41
2023-01-28T17:12:07.700Z,1.37
2023-01-28T17:14:36.625Z,1.33
2023-01-28T17:17:04.390Z,1.27
2023-01-28T17:19:32.038Z,0.91
2023-01-28T17:21:59.688Z,1.16
2023-01-28T17:24:27.409Z,1.40
2023-01-28T17:26:55.234Z,1.43
2023-01-28T17:29:22.879Z,1.32
2023-01-28T17:31:51.903Z,1.15
2023-01-28T17:34:19.593Z,1.41
2023-01-28T17:36:47.152Z,1.31
2023-01-28T17:39:14.761Z,1.56
2023-01-28T17:41:42.409Z,1.58
2023-01-28T17:44:12.280Z,1.83
2023-01-28T17:46:39.888Z,1.94
2023-01-28T17:49:08.820Z,1.47
2023-01-28T17:51:36.853Z,1.42
2023-01-28T17:54:04.944Z,1.37
2023-01-28T17:56:32.904Z,1.77
2023-01-28T17:59:03.533Z,1.72
2023-01-28T18:01:32.159Z,1.97
2023-01-28T18:04:00.204Z,2.00
2023-01-28T18:06:32.518Z,1.68
2023-01-28T18:09:00.144Z,1.67
2023-01-28T18:11:28.641Z,1.95
2023-01-28T18:13:56.687Z,1.73
2023-01-28T18:16:24.740Z,1.92
2023-01-28T18:18:52.349Z,1.64
2023-01-28T18:21:22.569Z,1.38
2023-01-28T18:23:54.013Z,1.41
2023-01-28T18:26:23.645Z,1.44
2023-01-28T18:28:51.222Z,1.39
2023-01-28T18:31:19.334Z,1.34
2023-01-28T18:33:47.350Z,1.05
2023-01-28T18:36:15.026Z,1.09
2023-01-28T18:38:42.609Z,1.52
2023-01-28T18:41:11.510Z,1.75
2023-01-28T18:43:39.115Z,1.89
2023-01-28T18:46:12.598Z,1.39
2023-01-28T18:48:40.403Z,1.31
2023-01-28T18:51:17.502Z,1.56
2023-01-28T18:53:57.694Z,1.38
2023-01-28T18:56:26.676Z,0.91
2023-01-28T18:58:57.195Z,1.33
2023-01-28T19:01:24.967Z,1.38
2023-01-28T19:03:53.935Z,1.67
2023-01-28T19:06:21.627Z,1.48
2023-01-28T19:08:53.528Z,1.11
2023-01-28T19:11:21.557Z,1.27
2023-01-28T19:13:50.670Z,1.47
2023-01-28T19:16:18.522Z,1.19
2023-01-28T19:18:52.435Z,1.25
2023-01-28T19:21:20.220Z,1.06
2023-01-28T19:23:50.280Z,1.18
2023-01-28T19:26:21.153Z,1.21
2023-01-28T19:28:50.854Z,1.07
2023-01-28T19:31:20.609Z,1.12
2023-01-28T19:33:48.879Z,1.21
2023-01-28T19:36:17.150Z,1.37
2023-01-28T19:38:45.009Z,1.02
2023-01-28T19:41:16.003Z,1.32
2023-01-28T19:43:44.148Z,1.22
2023-01-28T19:46:16.545Z,1.59
2023-01-28T19:48:44.638Z,1.50
2023-01-28T19:51:13.943Z,1.54
2023-01-28T19:53:43.036Z,1.27
2023-01-28T19:56:12.739Z,1.07
2023-01-28T19:58:42.223Z,1.27
2023-01-28T20:01:12.559Z,1.35
2023-01-28T20:03:41.959Z,1.33
2023-01-28T20:06:13.149Z,1.07
2023-01-28T20:08:41.205Z,1.04
2023-01-28T20:11:11.323Z,0.78
2023-01-28T20:13:40.948Z,0.97
2023-01-28T20:16:14.208Z,1.08
2023-01-28T20:18:43.295Z,1.27
2023-01-28T20:21:10.982Z,1.36
2023-01-28T20:23:38.690Z,0.93
2023-01-28T20:26:06.573Z,1.23
2023-01-28T20:28:34.314Z,1.30
2023-01-28T20:31:06.304Z,1.28
2023-01-28T20:33:34.280Z,1.03
2023-01-28T20:36:05.309Z,1.13
2023-01-28T20:38:35.865Z,1.06
2023-01-28T20:41:07.010Z,1.43
2023-01-28T20:43:35.373Z,1.52
2023-01-28T20:46:04.845Z,1.35
2023-01-28T20:48:32.694Z,1.67
2023-01-28T20:51:07.251Z,1.77
2023-01-28T20:53:35.045Z,1.81
2023-01-28T20:56:02.827Z,1.78
2023-01-28T20:58:30.850Z,1.67
2023-01-28T21:00:58.507Z,1.64
2023-01-28T21:03:26.308Z,1.71
2023-01-28T21:05:54.341Z,1.18
2023-01-28T21:08:23.564Z,1.18
2023-01-28T21:10:51.172Z,1.08
2023-01-28T21:13:18.805Z,1.18
2023-01-28T21:15:57.861Z,0.98
2023-01-28T21:18:26.482Z,1.11
2023-01-28T21:20:55.332Z,1.20
2023-01-28T21:23:25.671Z,1.12
2023-01-28T21:25:53.365Z,0.91
2023-01-28T21:28:21.295Z,0.96
2023-01-28T21:30:48.991Z,0.95
2023-01-28T21:33:16.669Z,1.08
2023-01-28T21:35:44.801Z,0.96
2023-01-28T21:38:12.731Z,1.22
2023-01-28T21:40:41.687Z,0.84
2023-01-28T21:43:09.265Z,1.00
2023-01-28T21:45:36.812Z,1.08
2023-01-28T21:48:04.542Z,1.13
2023-01-28T21:50:52.109Z,1.44
2023-01-28T21:53:19.744Z,0.98
2023-01-28T21:55:49.385Z,1.27
2023-01-28T21:58:34.728Z,1.03
2023-01-28T22:01:09.199Z,1.27
2023-01-28T22:03:36.823Z,1.18
2023-01-28T22:06:04.821Z,1.08
2023-01-28T22:08:32.437Z,1.48
2023-01-28T22:11:04.542Z,1.04
2023-01-28T22:13:32.736Z,1.07
2023-01-28T22:16:00.619Z,1.52
2023-01-28T22:18:28.258Z,1.41
2023-01-28T22:20:59.939Z,1.57
2023-01-28T22:23:27.777Z,1.62
2023-01-28T22:25:56.162Z,1.49
2023-01-28T22:28:26.155Z,1.34
2023-01-28T22:30:54.823Z,1.36
2023-01-28T22:33:23.303Z,1.65
2023-01-28T22:35:50.847Z,1.59
2023-01-28T22:38:18.693Z,1.38
2023-01-28T22:40:46.362Z,1.48
2023-01-28T22:43:14.043Z,1.03
2023-01-28T22:45:43.075Z,1.45
2023-01-28T22:48:10.738Z,1.21
2023-01-28T22:50:38.358Z,1.01
2023-01-28T22:53:05.897Z,0.84
2023-01-28T22:55:33.797Z,0.82
2023-01-28T22:58:01.681Z,0.93
2023-01-28T23:00:29.726Z,1.38
2023-01-28T23:02:58.731Z,1.49
2023-01-28T23:05:27.290Z,1.50
2023-01-28T23:08:10.869Z,1.57
2023-01-28T23:10:39.439Z,1.10
2023-01-28T23:13:07.541Z,1.36
2023-01-28T23:15:52.541Z,0.93
2023-01-28T23:18:43.030Z,1.34
2023-01-28T23:21:35.203Z,1.41
2023-01-28T23:24:21.695Z,1.27
2023-01-28T23:26:55.080Z,1.47
2023-01-28T23:29:24.984Z,1.41
2023-01-28T23:31:55.269Z,0.74
2023-01-28T23:34:24.495Z,0.73
2023-01-28T23:36:52.168Z,1.28
2023-01-28T23:39:19.762Z,1.03
2023-01-28T23:41:47.382Z,1.18
2023-01-28T23:44:16.884Z,0.68
2023-01-28T23:46:45.818Z,1.03
2023-01-28T23:49:13.792Z,1.07
2023-01-28T23:51:42.775Z,1.14
2023-01-28T23:54:10.354Z,0.52
2023-01-28T23:56:39.060Z,1.07
2023-01-28T23:59:06.697Z,0.60
